createdAt,value
2019-03-23T00:02:27.860Z,96.60
2019-03-23T00:04:56.755Z,96.60
2019-03-23T00:07:25.842Z,96.50
2019-03-23T00:09:54.627Z,96.30
2019-03-23T00:12:24.619Z,96.30
2019-03-23T00:14:53.540Z,96.30
2019-03-23T00:17:22.430Z,96.30
2019-03-23T00:19:51.315Z,96.30
2019-03-23T00:22:20.116Z,96.40
2019-03-23T00:24:48.974Z,96.20
2019-03-23T00:27:17.858Z,96.30
2019-03-23T00:29:46.756Z,96.30
2019-03-23T00:32:15.579Z,96.30
2019-03-23T00:34:44.477Z,96.40
2019-03-23T00:37:13.306Z,96.40
2019-03-23T00:39:42.115Z,96.50
2019-03-23T00:42:11.139Z,96.50
2019-03-23T00:44:40.037Z,96.50
2019-03-23T00:47:08.762Z,96.30
2019-03-23T00:49:37.580Z,96.20
2019-03-23T00:52:06.616Z,96.10
2019-03-23T00:54:35.465Z,96.20
2019-03-23T00:57:04.390Z,96.20
2019-03-23T00:59:33.284Z,96.20
2019-03-23T01:02:02.084Z,96.20
2019-03-23T01:04:30.907Z,96.30
2019-03-23T01:06:59.740Z,96.40
2019-03-23T01:09:28.647Z,96.60
2019-03-23T01:11:57.645Z,96.50
2019-03-23T01:14:26.629Z,96.50
2019-03-23T01:16:55.525Z,96.50
2019-03-23T01:19:24.372Z,96.50
2019-03-23T01:21:53.307Z,96.40
2019-03-23T01:24:22.179Z,96.50
2019-03-23T01:26:50.971Z,96.40
2019-03-23T01:29:19.963Z,96.50
2019-03-23T01:31:48.675Z,96.80
2019-03-23T01:34:17.426Z,96.50
2019-03-23T01:36:46.229Z,96.50
2019-03-23T01:39:15.091Z,96.50
2019-03-23T01:41:43.995Z,96.40
2019-03-23T01:44:12.866Z,96.40
2019-03-23T01:46:41.724Z,96.30
2019-03-23T01:49:10.595Z,96.30
2019-03-23T01:51:39.483Z,96.30
2019-03-23T01:54:08.354Z,96.30
2019-03-23T01:56:37.172Z,96.20
2019-03-23T01:59:05.956Z,96.20
2019-03-23T02:01:34.771Z,96.10
2019-03-23T02:04:03.586Z,96.10
2019-03-23T02:06:32.467Z,96.10
2019-03-23T02:09:01.292Z,96.10
2019-03-23T02:11:30.169Z,96.20
2019-03-23T02:13:58.851Z,96.10
2019-03-23T02:16:28.539Z,96.20
2019-03-23T02:18:57.292Z,96.20
2019-03-23T02:21:26.081Z,96.20
2019-03-23T02:23:54.835Z,96.30
2019-03-23T02:26:23.595Z,96.20
2019-03-23T02:28:52.483Z,96.20
2019-03-23T02:31:21.308Z,96.20
2019-03-23T02:33:50.144Z,96.20
2019-03-23T02:36:20.902Z,96.20
2019-03-23T02:38:49.451Z,96.20
2019-03-23T02:41:18.323Z,96.20
2019-03-23T02:43:47.289Z,96.30
2019-03-23T02:46:15.997Z,96.30
2019-03-23T02:48:44.827Z,96.30
2019-03-23T02:51:13.620Z,96.20
2019-03-23T02:53:42.389Z,96.20
2019-03-23T02:56:11.138Z,96.20
2019-03-23T02:58:40.268Z,96.20
2019-03-23T03:01:09.044Z,96.20
2019-03-23T03:03:37.853Z,96.10
2019-03-23T03:06:06.644Z,96.10
2019-03-23T03:08:35.485Z,96.10
2019-03-23T03:11:04.563Z,96.00
2019-03-23T03:13:33.364Z,96.10
2019-03-23T03:16:02.123Z,96.40
2019-03-23T03:18:30.947Z,96.20
2019-03-23T03:20:59.746Z,96.20
2019-03-23T03:23:28.477Z,96.10
2019-03-23T03:25:57.251Z,96.30
2019-03-23T03:28:26.093Z,96.30
2019-03-23T03:30:54.835Z,96.30
2019-03-23T03:33:23.699Z,96.30
2019-03-23T03:35:52.789Z,96.10
2019-03-23T03:38:21.573Z,96.10
2019-03-23T03:40:50.358Z,96.10
2019-03-23T03:43:19.164Z,96.10
2019-03-23T03:45:47.964Z,96.30
2019-03-23T03:48:16.796Z,96.30
2019-03-23T03:50:45.599Z,96.30
2019-03-23T03:53:14.337Z,96.20
2019-03-23T03:55:43.093Z,96.20
2019-03-23T03:58:11.907Z,96.40
2019-03-23T04:00:40.740Z,96.50
2019-03-23T04:03:09.570Z,96.20
2019-03-23T04:05:38.396Z,96.20
2019-03-23T04:08:11.619Z,96.30
2019-03-23T04:10:37.915Z,96.30
2019-03-23T04:13:06.722Z,96.30
2019-03-23T04:15:35.659Z,96.30
2019-03-23T04:18:04.483Z,96.40
2019-03-23T04:20:34.117Z,96.40
2019-03-23T04:23:02.875Z,96.40
2019-03-23T04:25:31.615Z,96.50
2019-03-23T04:28:00.481Z,96.50
2019-03-23T04:30:29.314Z,96.50
2019-03-23T04:32:58.035Z,96.50
2019-03-23T04:35:26.865Z,96.40
2019-03-23T04:37:55.660Z,96.40
2019-03-23T04:40:24.493Z,96.40
2019-03-23T04:42:53.286Z,96.40
2019-03-23T04:45:22.060Z,96.30
2019-03-23T04:47:50.820Z,96.30
2019-03-23T04:50:19.691Z,96.20
2019-03-23T04:52:48.448Z,96.20
2019-03-23T04:55:17.267Z,96.30
2019-03-23T04:57:46.083Z,96.30
2019-03-23T05:00:17.963Z,96.30
2019-03-23T05:02:46.716Z,96.30
2019-03-23T05:05:15.684Z,96.30
2019-03-23T05:07:44.419Z,96.40
2019-03-23T05:10:13.357Z,96.40
2019-03-23T05:12:42.158Z,96.40
2019-03-23T05:15:11.571Z,96.40
2019-03-23T05:17:40.259Z,96.60
2019-03-23T05:20:11.242Z,96.70
2019-03-23T05:22:39.984Z,96.70
2019-03-23T05:25:11.669Z,96.90
2019-03-23T05:27:40.516Z,96.80
2019-03-23T05:30:09.266Z,96.80
2019-03-23T05:32:38.012Z,96.80
2019-03-23T05:35:07.612Z,96.70
2019-03-23T05:37:36.413Z,96.70
2019-03-23T05:40:06.834Z,96.60
2019-03-23T05:42:36.027Z,96.90
2019-03-23T05:45:06.274Z,96.60
2019-03-23T05:47:35.207Z,96.60
2019-03-23T05:50:05.714Z,96.60
2019-03-23T05:52:34.497Z,96.70
2019-03-23T05:55:03.427Z,96.80
2019-03-23T05:57:32.340Z,96.90
2019-03-23T06:00:01.170Z,96.80
2019-03-23T06:02:30.011Z,96.80
2019-03-23T06:04:58.876Z,96.80
2019-03-23T06:07:27.628Z,96.90
2019-03-23T06:09:56.378Z,97.00
2019-03-23T06:12:25.276Z,97.00
2019-03-23T06:14:54.235Z,97.00
2019-03-23T06:17:22.987Z,97.20
2019-03-23T06:19:51.706Z,97.30
2019-03-23T06:22:20.499Z,97.40
2019-03-23T06:24:49.444Z,97.40
2019-03-23T06:27:18.251Z,97.50
2019-03-23T06:29:47.114Z,97.50
2019-03-23T06:32:15.996Z,97.60
2019-03-23T06:34:44.900Z,97.60
2019-03-23T06:37:13.699Z,97.90
2019-03-23T06:39:42.486Z,98.10
2019-03-23T06:42:11.267Z,98.30
2019-03-23T06:44:40.060Z,98.40
2019-03-23T06:47:08.811Z,98.50
2019-03-23T06:49:37.690Z,98.70
2019-03-23T06:52:06.531Z,98.70
2019-03-23T06:54:35.260Z,98.70
2019-03-23T06:57:04.087Z,98.70
2019-03-23T06:59:32.827Z,98.70
2019-03-23T07:02:01.572Z,98.60
2019-03-23T07:04:30.371Z,98.50
2019-03-23T07:06:59.099Z,98.60
2019-03-23T07:09:27.849Z,98.80
2019-03-23T07:11:56.651Z,98.90
2019-03-23T07:14:27.630Z,98.70
2019-03-23T07:16:56.500Z,98.80
2019-03-23T07:21:50.299Z,99.10
2019-03-23T07:24:19.051Z,99.50
2019-03-23T07:26:48.796Z,99.40
2019-03-23T07:29:17.699Z,99.30
2019-03-23T07:31:46.452Z,99.20
2019-03-23T07:34:15.266Z,99.00
2019-03-23T07:36:44.189Z,98.90
2019-03-23T07:39:13.061Z,98.90
2019-03-23T07:41:41.818Z,98.70
2019-03-23T07:44:10.678Z,98.70
2019-03-23T07:46:39.443Z,98.70
2019-03-23T07:49:08.195Z,98.70
2019-03-23T07:51:37.003Z,98.70
2019-03-23T07:54:05.810Z,98.40
2019-03-23T07:56:34.673Z,98.00
2019-03-23T07:59:03.526Z,98.00
2019-03-23T08:01:32.275Z,97.80
2019-03-23T08:04:01.051Z,97.60
2019-03-23T08:06:29.900Z,97.30
2019-03-23T08:08:58.724Z,97.10
2019-03-23T08:11:27.476Z,97.60
2019-03-23T08:13:56.299Z,98.00
2019-03-23T08:16:25.053Z,97.40
2019-03-23T08:18:53.860Z,97.50
2019-03-23T08:21:22.756Z,97.40
2019-03-23T08:23:51.507Z,97.20
2019-03-23T08:26:20.324Z,96.70
2019-03-23T08:28:49.143Z,97.00
2019-03-23T08:31:17.901Z,97.10
2019-03-23T08:33:46.754Z,97.00
2019-03-23T08:36:15.619Z,96.80
2019-03-23T08:38:44.364Z,96.10
2019-03-23T08:41:13.212Z,96.20
2019-03-23T08:43:42.091Z,95.30
2019-03-23T08:46:10.836Z,94.70
2019-03-23T08:48:39.627Z,94.30
2019-03-23T08:51:08.538Z,93.30
2019-03-23T08:53:37.363Z,92.40
2019-03-23T08:56:06.188Z,91.40
2019-03-23T08:58:33.789Z,91.60
2019-03-23T09:01:02.610Z,90.60
2019-03-23T09:03:31.371Z,90.40
2019-03-23T09:06:00.196Z,90.10
2019-03-23T09:08:28.971Z,88.80
2019-03-23T09:10:57.796Z,88.00
2019-03-23T09:13:26.621Z,86.80
2019-03-23T09:15:55.469Z,85.90
2019-03-23T09:18:24.315Z,84.50
2019-03-23T09:20:53.107Z,85.50
2019-03-23T09:23:21.939Z,85.40
2019-03-23T09:25:50.708Z,84.00
2019-03-23T09:28:19.571Z,82.60
2019-03-23T09:30:49.307Z,82.20
2019-03-23T09:33:18.100Z,83.50
2019-03-23T09:35:46.980Z,81.20
2019-03-23T09:38:15.740Z,79.60
2019-03-23T09:40:44.505Z,77.90
2019-03-23T09:43:13.379Z,76.80
2019-03-23T09:45:42.268Z,76.70
2019-03-23T09:48:11.091Z,75.10
2019-03-23T09:50:39.901Z,74.70
2019-03-23T09:53:08.748Z,76.20
2019-03-23T09:55:38.100Z,75.80
2019-03-23T09:58:06.925Z,75.10
2019-03-23T10:00:35.701Z,73.80
2019-03-23T10:03:04.540Z,74.40
2019-03-23T10:05:33.463Z,72.90
2019-03-23T10:08:02.211Z,72.30
2019-03-23T10:10:30.980Z,71.90
2019-03-23T10:12:59.796Z,72.20
2019-03-23T10:15:28.563Z,69.60
2019-03-23T10:17:57.404Z,68.10
2019-03-23T10:20:26.329Z,71.40
2019-03-23T10:22:55.146Z,68.10
2019-03-23T10:25:23.932Z,68.50
2019-03-23T10:27:52.707Z,69.10
2019-03-23T10:30:21.555Z,70.20
2019-03-23T10:32:51.274Z,70.40
2019-03-23T10:35:20.156Z,69.40
2019-03-23T10:37:48.972Z,71.30
2019-03-23T10:40:17.820Z,69.90
2019-03-23T10:42:46.660Z,70.80
2019-03-23T10:45:15.495Z,73.30
2019-03-23T10:47:44.347Z,70.70
2019-03-23T10:50:13.252Z,66.60
2019-03-23T10:52:42.058Z,69.60
2019-03-23T10:55:10.935Z,67.30
2019-03-23T10:57:39.772Z,70.70
2019-03-23T11:00:13.227Z,66.00
2019-03-23T11:02:41.978Z,67.60
2019-03-23T11:05:11.315Z,66.40
2019-03-23T11:07:40.156Z,63.90
2019-03-23T11:10:13.307Z,66.20
2019-03-23T11:12:42.188Z,63.80
2019-03-23T11:15:11.687Z,64.10
2019-03-23T11:17:40.492Z,60.30
2019-03-23T11:20:13.682Z,61.10
2019-03-23T11:22:42.444Z,62.00
2019-03-23T11:25:11.582Z,62.30
2019-03-23T11:27:40.476Z,59.80
2019-03-23T11:30:11.767Z,59.10
2019-03-23T11:32:40.572Z,59.10
2019-03-23T11:35:09.610Z,57.30
2019-03-23T11:37:38.631Z,59.00
2019-03-23T11:40:10.322Z,58.00
2019-03-23T11:42:49.342Z,56.80
2019-03-23T11:45:11.301Z,58.00
2019-03-23T11:47:40.115Z,57.10
2019-03-23T11:50:09.845Z,57.40
2019-03-23T11:52:38.634Z,56.80
2019-03-23T11:55:07.971Z,58.40
2019-03-23T11:57:36.891Z,58.00
2019-03-23T12:00:08.621Z,56.00
2019-03-23T12:02:37.452Z,56.60
2019-03-23T12:05:08.696Z,56.60
2019-03-23T12:07:37.540Z,56.20
2019-03-23T12:10:11.582Z,56.50
2019-03-23T12:12:40.476Z,55.20
2019-03-23T12:15:11.147Z,55.90
2019-03-23T12:17:40.004Z,55.70
2019-03-23T12:20:09.131Z,55.80
2019-03-23T12:22:37.916Z,55.50
2019-03-23T12:25:07.052Z,54.80
2019-03-23T12:27:35.979Z,54.80
2019-03-23T12:30:07.838Z,55.60
2019-03-23T12:32:36.677Z,55.50
2019-03-23T12:35:07.525Z,55.20
2019-03-23T12:37:36.298Z,56.70
2019-03-23T12:40:06.900Z,56.60
2019-03-23T12:42:35.748Z,56.50
2019-03-23T12:45:06.179Z,56.60
2019-03-23T12:47:35.003Z,55.20
2019-03-23T12:50:05.476Z,54.80
2019-03-23T12:52:34.332Z,54.30
2019-03-23T12:55:03.387Z,53.50
2019-03-23T12:57:32.186Z,55.00
2019-03-23T13:00:01.061Z,55.00
2019-03-23T13:02:29.828Z,53.80
2019-03-23T13:04:58.723Z,54.80
2019-03-23T13:07:27.498Z,55.20
2019-03-23T13:09:56.315Z,55.50
2019-03-23T13:12:25.219Z,54.40
2019-03-23T13:14:54.059Z,54.30
2019-03-23T13:17:22.882Z,55.60
2019-03-23T13:19:51.788Z,55.70
2019-03-23T13:22:20.621Z,56.60
2019-03-23T13:24:49.359Z,54.90
2019-03-23T13:27:18.257Z,56.90
2019-03-23T13:29:47.108Z,56.30
2019-03-23T13:32:15.892Z,55.80
2019-03-23T13:34:44.796Z,58.20
2019-03-23T13:37:13.635Z,58.20
2019-03-23T13:39:43.243Z,58.10
2019-03-23T13:42:12.068Z,57.60
2019-03-23T13:44:40.878Z,58.70
2019-03-23T13:47:09.659Z,58.60
2019-03-23T13:49:38.547Z,59.80
2019-03-23T13:52:07.387Z,58.70
2019-03-23T13:54:36.211Z,58.80
2019-03-23T13:57:05.028Z,59.20
2019-03-23T13:59:33.851Z,59.70
2019-03-23T14:02:02.693Z,60.60
2019-03-23T14:04:31.588Z,62.00
2019-03-23T14:07:00.801Z,62.70
2019-03-23T14:09:29.644Z,63.20
2019-03-23T14:11:58.531Z,64.00
2019-03-23T14:14:27.377Z,64.00
2019-03-23T14:16:56.164Z,65.30
2019-03-23T14:19:25.014Z,66.80
2019-03-23T14:21:53.779Z,66.70
2019-03-23T14:24:22.554Z,67.10
2019-03-23T14:26:51.466Z,67.50
2019-03-23T14:29:20.220Z,66.80
2019-03-23T14:31:49.076Z,66.80
2019-03-23T14:34:17.952Z,66.40
2019-03-23T14:36:46.771Z,63.80
2019-03-23T14:39:15.590Z,61.10
2019-03-23T14:41:44.467Z,60.00
2019-03-23T14:44:13.235Z,60.30
2019-03-23T14:46:42.059Z,60.90
2019-03-23T14:49:10.964Z,61.20
2019-03-23T14:51:39.796Z,60.30
2019-03-23T14:54:08.554Z,60.60
2019-03-23T14:56:37.478Z,60.40
2019-03-23T14:59:06.315Z,61.00
2019-03-23T15:01:35.083Z,60.50
2019-03-23T15:04:03.899Z,61.40
2019-03-23T15:06:32.740Z,62.30
2019-03-23T15:09:01.639Z,62.70
2019-03-23T15:11:30.483Z,62.70
2019-03-23T15:13:59.314Z,63.10
2019-03-23T15:16:28.130Z,63.00
2019-03-23T15:18:57.027Z,63.40
2019-03-23T15:21:25.806Z,63.60
2019-03-23T15:23:54.564Z,64.10
2019-03-23T15:26:23.354Z,65.60
2019-03-23T15:28:52.171Z,65.10
2019-03-23T15:31:21.604Z,66.10
2019-03-23T15:33:50.491Z,64.70
2019-03-23T15:36:19.258Z,65.30
2019-03-23T15:38:49.141Z,63.90
2019-03-23T15:41:18.099Z,65.40
2019-03-23T15:43:47.020Z,64.30
2019-03-23T15:46:15.778Z,63.90
2019-03-23T15:48:44.717Z,64.20
2019-03-23T15:51:13.573Z,63.70
2019-03-23T15:53:42.455Z,63.80
2019-03-23T15:56:11.268Z,63.00
2019-03-23T15:58:40.044Z,64.50
2019-03-23T16:01:10.755Z,64.40
2019-03-23T16:03:39.564Z,65.00
2019-03-23T16:06:08.348Z,65.10
2019-03-23T16:08:37.203Z,66.20
2019-03-23T16:11:06.116Z,66.60
2019-03-23T16:13:34.972Z,67.10
2019-03-23T16:16:03.898Z,66.80
2019-03-23T16:18:32.828Z,67.50
2019-03-23T16:21:01.581Z,67.30
2019-03-23T16:23:30.360Z,67.40
2019-03-23T16:25:59.244Z,67.70
2019-03-23T16:28:30.014Z,68.00
2019-03-23T16:30:58.763Z,68.00
2019-03-23T16:33:27.653Z,68.80
2019-03-23T16:35:56.495Z,69.50
2019-03-23T16:38:25.324Z,69.90
2019-03-23T16:40:54.148Z,70.30
2019-03-23T16:43:22.978Z,70.80
2019-03-23T16:45:51.740Z,71.10
2019-03-23T16:48:20.637Z,71.40
2019-03-23T16:50:49.485Z,71.90
2019-03-23T16:53:18.334Z,72.00
2019-03-23T16:55:47.204Z,71.90
2019-03-23T16:58:16.567Z,71.90
2019-03-23T17:00:45.476Z,72.40
2019-03-23T17:03:14.291Z,72.60
2019-03-23T17:05:43.107Z,73.10
2019-03-23T17:08:11.877Z,73.00
2019-03-23T17:10:40.764Z,75.50
2019-03-23T17:13:09.626Z,73.60
2019-03-23T17:15:38.468Z,73.60
2019-03-23T17:18:07.340Z,74.00
2019-03-23T17:20:36.140Z,74.20
2019-03-23T17:23:04.923Z,74.40
2019-03-23T17:25:33.749Z,74.60
2019-03-23T17:28:02.583Z,74.70
2019-03-23T17:30:31.432Z,75.10
2019-03-23T17:33:00.315Z,75.90
2019-03-23T17:35:29.163Z,75.90
2019-03-23T17:37:57.989Z,75.80
2019-03-23T17:40:26.868Z,76.20
2019-03-23T17:43:05.385Z,76.70
2019-03-23T17:45:26.197Z,77.10
2019-03-23T17:47:55.100Z,77.60
2019-03-23T17:50:23.877Z,77.80
2019-03-23T17:52:52.708Z,78.90
2019-03-23T17:55:21.539Z,78.60
2019-03-23T17:57:50.292Z,78.90
2019-03-23T18:00:19.343Z,79.30
2019-03-23T18:02:48.218Z,79.60
2019-03-23T18:05:16.964Z,80.70
2019-03-23T18:07:45.789Z,80.30
2019-03-23T18:10:15.300Z,80.30
2019-03-23T18:12:44.130Z,80.50
2019-03-23T18:15:13.206Z,80.60
2019-03-23T18:17:42.076Z,80.40
2019-03-23T18:20:11.108Z,80.40
2019-03-23T18:22:39.988Z,80.60
2019-03-23T18:25:09.053Z,80.70
2019-03-23T18:27:37.901Z,81.10
2019-03-23T18:30:09.677Z,81.10
2019-03-23T18:32:38.618Z,81.60
2019-03-23T18:35:07.468Z,82.50
2019-03-23T18:37:36.300Z,81.60
2019-03-23T18:40:08.257Z,81.90
2019-03-23T18:42:37.267Z,81.90
2019-03-23T18:45:06.927Z,81.90
2019-03-23T18:47:35.820Z,81.90
2019-03-23T18:50:06.828Z,81.70
2019-03-23T18:52:35.659Z,81.80
2019-03-23T18:55:06.644Z,82.00
2019-03-23T18:57:35.483Z,82.20
2019-03-23T19:00:08.940Z,82.40
2019-03-23T19:02:37.827Z,82.60
2019-03-23T19:05:06.893Z,82.70
2019-03-23T19:07:35.756Z,82.70
2019-03-23T19:10:06.124Z,83.00
2019-03-23T19:12:34.955Z,83.30
2019-03-23T19:15:05.139Z,83.40
2019-03-23T19:17:34.060Z,83.50
2019-03-23T19:20:03.175Z,83.40
2019-03-23T19:22:32.014Z,83.40
2019-03-23T19:25:00.974Z,83.20
2019-03-23T19:27:29.724Z,83.10
2019-03-23T19:29:58.548Z,83.20
2019-03-23T19:32:27.364Z,83.20
2019-03-23T19:34:56.218Z,83.40
2019-03-23T19:37:25.020Z,83.90
2019-03-23T19:39:53.895Z,84.30
2019-03-23T19:42:22.780Z,84.30
2019-03-23T19:44:51.651Z,84.50
2019-03-23T19:47:20.525Z,84.20
2019-03-23T19:49:49.364Z,84.00
2019-03-23T19:52:19.077Z,83.80
2019-03-23T19:54:47.964Z,83.70
2019-03-23T19:57:16.820Z,83.50
2019-03-23T19:59:45.700Z,84.10
2019-03-23T20:02:14.540Z,84.10
2019-03-23T20:04:43.483Z,83.10
2019-03-23T20:07:12.325Z,82.30
2019-03-23T20:09:41.205Z,82.10
2019-03-23T20:12:10.036Z,81.70
2019-03-23T20:14:38.986Z,80.50
2019-03-23T20:17:07.828Z,81.20
2019-03-23T20:19:36.604Z,81.40
2019-03-23T20:22:05.459Z,81.30
2019-03-23T20:24:34.290Z,81.20
2019-03-23T20:27:03.174Z,81.10
2019-03-23T20:29:32.037Z,80.00
2019-03-23T20:32:00.852Z,80.00
2019-03-23T20:34:32.664Z,79.90
2019-03-23T20:37:01.500Z,80.00
2019-03-23T20:39:30.436Z,80.20
2019-03-23T20:41:59.278Z,80.00
2019-03-23T20:44:28.052Z,80.50
2019-03-23T20:46:56.908Z,80.50
2019-03-23T20:49:25.732Z,81.20
2019-03-23T20:51:54.708Z,81.00
2019-03-23T20:54:24.381Z,80.80
2019-03-23T20:56:53.204Z,80.60
2019-03-23T20:59:21.949Z,81.10
2019-03-23T21:01:50.853Z,80.90
2019-03-23T21:04:19.668Z,80.60
2019-03-23T21:06:48.505Z,80.90
2019-03-23T21:09:17.372Z,81.00
2019-03-23T21:11:46.132Z,81.00
2019-03-23T21:14:20.220Z,81.90
2019-03-23T21:16:45.484Z,81.30
2019-03-23T21:19:14.340Z,81.40
2019-03-23T21:21:43.106Z,81.30
2019-03-23T21:24:12.037Z,81.60
2019-03-23T21:26:40.900Z,81.80
2019-03-23T21:29:09.666Z,81.90
2019-03-23T21:31:38.563Z,82.10
2019-03-23T21:34:07.419Z,81.90
2019-03-23T21:36:36.268Z,82.20
2019-03-23T21:39:06.853Z,80.20
2019-03-23T21:41:35.627Z,76.00
2019-03-23T21:44:04.371Z,75.90
2019-03-23T21:46:33.278Z,75.90
2019-03-23T21:49:02.112Z,75.40
2019-03-23T21:51:30.874Z,73.80
2019-03-23T21:53:59.674Z,74.30
2019-03-23T21:56:28.539Z,73.70
2019-03-23T21:58:57.287Z,73.40
2019-03-23T22:01:26.172Z,73.60
2019-03-23T22:03:54.946Z,72.60
2019-03-23T22:06:23.691Z,72.60
2019-03-23T22:08:52.596Z,73.40
2019-03-23T22:11:21.436Z,72.70
2019-03-23T22:13:50.226Z,72.30
2019-03-23T22:16:19.108Z,72.40
2019-03-23T22:18:47.955Z,72.90
2019-03-23T22:21:16.708Z,74.00
2019-03-23T22:23:45.594Z,73.60
2019-03-23T22:26:14.540Z,73.10
2019-03-23T22:28:43.380Z,72.90
2019-03-23T22:31:12.299Z,73.90
2019-03-23T22:33:41.137Z,74.40
2019-03-23T22:36:09.908Z,74.40
2019-03-23T22:38:38.787Z,75.00
2019-03-23T22:41:07.623Z,76.10
2019-03-23T22:43:36.370Z,74.80
2019-03-23T22:46:05.203Z,75.30
2019-03-23T22:48:34.148Z,75.90
2019-03-23T22:51:02.932Z,75.80
2019-03-23T22:53:31.730Z,76.20
2019-03-23T22:56:00.491Z,76.60
2019-03-23T22:58:29.324Z,76.80
2019-03-23T23:00:58.132Z,77.10
2019-03-23T23:03:26.890Z,77.40
2019-03-23T23:05:55.717Z,77.40
2019-03-23T23:08:24.523Z,77.70
2019-03-23T23:10:53.365Z,77.90
2019-03-23T23:13:22.132Z,78.40
2019-03-23T23:15:50.930Z,78.80
2019-03-23T23:18:19.677Z,78.90
2019-03-23T23:20:48.516Z,79.10
2019-03-23T23:23:17.388Z,79.20
2019-03-23T23:25:46.219Z,79.70
2019-03-23T23:28:14.980Z,80.20
2019-03-23T23:30:43.860Z,80.10
2019-03-23T23:33:12.676Z,80.40
2019-03-23T23:35:41.475Z,81.00
2019-03-23T23:38:10.356Z,81.30
2019-03-23T23:40:39.203Z,81.70
2019-03-23T23:43:08.059Z,82.90
2019-03-23T23:45:36.922Z,82.20
2019-03-23T23:48:05.779Z,82.60
2019-03-23T23:50:34.596Z,83.10
2019-03-23T23:53:03.395Z,82.80
2019-03-23T23:55:32.154Z,83.10
2019-03-23T23:58:00.988Z,83.20
